sensor_id;sensor_type;location;lat;lon;timestamp;pressure;altitude;pressure_sealevel;temperature;humidity
1652;BME280;823;49.028;8.454;2023-05-20T00:02:37;100605.25;;;18.08;50.45
1652;BME280;823;49.028;8.454;2023-05-20T00:07:38;100598.34;;;18.07;50.22
1652;BME280;823;49.028;8.454;2023-05-20T00:12:38;100601.06;;;18.06;50.42
1652;BME280;823;49.028;8.454;2023-05-20T00:17:38;100595.06;;;18.03;49.99
1652;BME280;823;49.028;8.454;2023-05-20T00:22:39;100601.13;;;18.04;49.78
1652;BME280;823;49.028;8.454;2023-05-20T00:27:40;100598.19;;;17.96;49.75
1652;BME280;823;49.028;8.454;2023-05-20T00:32:40;100604.66;;;17.88;49.96
1652;BME280;823;49.028;8.454;2023-05-20T00:37:40;100595.22;;;17.86;50.08
1652;BME280;823;49.028;8.454;2023-05-20T00:42:41;100589.16;;;17.85;50.17
1652;BME280;823;49.028;8.454;2023-05-20T00:47:42;100577.56;;;17.75;49.63
1652;BME280;823;49.028;8.454;2023-05-20T00:52:42;100588.03;;;17.75;48.94
1652;BME280;823;49.028;8.454;2023-05-20T00:57:44;100586.25;;;17.76;49.07
1652;BME280;823;49.028;8.454;2023-05-20T01:02:44;100585.78;;;17.69;49.61
1652;BME280;823;49.028;8.454;2023-05-20T01:07:45;100582.31;;;17.68;50.05
1652;BME280;823;49.028;8.454;2023-05-20T01:12:50;100575.13;;;17.72;49.23
1652;BME280;823;49.028;8.454;2023-05-20T01:18:00;100577.28;;;17.80;48.98
1652;BME280;823;49.028;8.454;2023-05-20T01:23:02;100584.84;;;17.84;49.98
1652;BME280;823;49.028;8.454;2023-05-20T01:28:03;100583.00;;;17.86;49.49
1652;BME280;823;49.028;8.454;2023-05-20T01:33:08;100578.16;;;17.95;49.67
1652;BME280;823;49.028;8.454;2023-05-20T01:38:10;100582.38;;;17.97;48.82
1652;BME280;823;49.028;8.454;2023-05-20T01:43:11;100577.16;;;17.97;48.88
1652;BME280;823;49.028;8.454;2023-05-20T01:48:12;100575.25;;;17.99;48.86
1652;BME280;823;49.028;8.454;2023-05-20T01:53:13;100579.75;;;17.97;49.18
1652;BME280;823;49.028;8.454;2023-05-20T01:58:13;100570.03;;;17.99;49.16
1652;BME280;823;49.028;8.454;2023-05-20T02:03:14;100563.28;;;17.95;48.98
1652;BME280;823;49.028;8.454;2023-05-20T02:08:14;100566.84;;;17.94;49.23
1652;BME280;823;49.028;8.454;2023-05-20T02:13:15;100567.69;;;17.95;49.52
1652;BME280;823;49.028;8.454;2023-05-20T02:18:15;100557.19;;;17.80;48.57
1652;BME280;823;49.028;8.454;2023-05-20T02:23:17;100554.41;;;17.83;48.80
1652;BME280;823;49.028;8.454;2023-05-20T02:28:17;100552.03;;;17.79;49.56
1652;BME280;823;49.028;8.454;2023-05-20T02:33:18;100543.81;;;17.70;50.01
1652;BME280;823;49.028;8.454;2023-05-20T02:38:19;100538.13;;;17.64;49.96
1652;BME280;823;49.028;8.454;2023-05-20T02:43:19;100534.19;;;17.57;50.18
1652;BME280;823;49.028;8.454;2023-05-20T02:48:20;100527.13;;;17.59;49.82
1652;BME280;823;49.028;8.454;2023-05-20T02:53:20;100529.72;;;17.59;50.25
1652;BME280;823;49.028;8.454;2023-05-20T02:58:20;100535.16;;;17.56;50.11
1652;BME280;823;49.028;8.454;2023-05-20T03:03:25;100539.72;;;17.52;50.27
1652;BME280;823;49.028;8.454;2023-05-20T03:08:26;100543.34;;;17.49;49.93
1652;BME280;823;49.028;8.454;2023-05-20T03:13:26;100540.16;;;17.44;49.01
1652;BME280;823;49.028;8.454;2023-05-20T03:18:27;100542.88;;;17.43;49.51
1652;BME280;823;49.028;8.454;2023-05-20T03:23:27;100544.84;;;17.39;49.52
1652;BME280;823;49.028;8.454;2023-05-20T03:28:27;100551.19;;;17.35;49.80
1652;BME280;823;49.028;8.454;2023-05-20T03:33:28;100545.16;;;17.18;49.21
1652;BME280;823;49.028;8.454;2023-05-20T03:38:29;100550.91;;;17.09;48.59
1652;BME280;823;49.028;8.454;2023-05-20T03:43:29;100547.81;;;17.02;48.44
1652;BME280;823;49.028;8.454;2023-05-20T03:48:30;100556.44;;;16.89;48.26
1652;BME280;823;49.028;8.454;2023-05-20T03:53:30;100558.13;;;16.90;48.33
1652;BME280;823;49.028;8.454;2023-05-20T03:58:30;100554.59;;;16.91;48.69
1652;BME280;823;49.028;8.454;2023-05-20T04:03:31;100567.66;;;16.91;47.96
1652;BME280;823;49.028;8.454;2023-05-20T04:08:31;100572.25;;;16.85;48.12
1652;BME280;823;49.028;8.454;2023-05-20T04:13:31;100569.97;;;16.79;48.19
1652;BME280;823;49.028;8.454;2023-05-20T04:18:32;100562.75;;;16.68;48.38
1652;BME280;823;49.028;8.454;2023-05-20T04:23:32;100560.25;;;16.67;48.69
1652;BME280;823;49.028;8.454;2023-05-20T04:28:33;100560.56;;;16.61;48.72
1652;BME280;823;49.028;8.454;2023-05-20T04:33:33;100562.19;;;16.63;49.02
1652;BME280;823;49.028;8.454;2023-05-20T04:38:37;100558.22;;;16.56;48.74
1652;BME280;823;49.028;8.454;2023-05-20T04:43:37;100556.94;;;16.63;49.29
1652;BME280;823;49.028;8.454;2023-05-20T04:48:39;100561.91;;;16.68;48.95
1652;BME280;823;49.028;8.454;2023-05-20T04:53:39;100562.84;;;16.67;49.04
1652;BME280;823;49.028;8.454;2023-05-20T04:58:39;100553.56;;;16.61;48.87
1652;BME280;823;49.028;8.454;2023-05-20T05:03:40;100550.53;;;16.53;48.68
1652;BME280;823;49.028;8.454;2023-05-20T05:08:40;100543.06;;;16.63;48.98
1652;BME280;823;49.028;8.454;2023-05-20T05:13:41;100537.13;;;16.75;49.22
1652;BME280;823;49.028;8.454;2023-05-20T05:18:41;100534.19;;;16.81;48.86
1652;BME280;823;49.028;8.454;2023-05-20T05:23:41;100527.75;;;16.87;48.55
1652;BME280;823;49.028;8.454;2023-05-20T05:28:42;100525.59;;;16.95;48.53
1652;BME280;823;49.028;8.454;2023-05-20T05:33:42;100517.66;;;16.97;48.67
1652;BME280;823;49.028;8.454;2023-05-20T05:38:42;100507.59;;;17.05;48.35
1652;BME280;823;49.028;8.454;2023-05-20T05:43:43;100515.84;;;17.13;48.46
1652;BME280;823;49.028;8.454;2023-05-20T05:48:43;100509.13;;;17.24;48.64
1652;BME280;823;49.028;8.454;2023-05-20T05:53:47;100522.41;;;17.35;48.74
1652;BME280;823;49.028;8.454;2023-05-20T05:58:48;100515.59;;;17.47;48.59
1652;BME280;823;49.028;8.454;2023-05-20T06:03:48;100516.09;;;17.53;48.46
1652;BME280;823;49.028;8.454;2023-05-20T06:08:49;100509.28;;;17.65;48.95
1652;BME280;823;49.028;8.454;2023-05-20T06:13:49;100515.91;;;17.71;48.67
1652;BME280;823;49.028;8.454;2023-05-20T06:18:50;100510.47;;;17.88;48.44
1652;BME280;823;49.028;8.454;2023-05-20T06:23:50;100520.41;;;17.98;48.45
1652;BME280;823;49.028;8.454;2023-05-20T06:28:50;100515.69;;;18.17;48.46
1652;BME280;823;49.028;8.454;2023-05-20T06:33:50;100497.16;;;18.35;48.30
1652;BME280;823;49.028;8.454;2023-05-20T06:38:51;100495.22;;;18.51;47.92
1652;BME280;823;49.028;8.454;2023-05-20T06:43:51;100483.09;;;18.63;48.06
1652;BME280;823;49.028;8.454;2023-05-20T06:48:51;100486.00;;;18.86;47.90
1652;BME280;823;49.028;8.454;2023-05-20T06:53:52;100485.81;;;18.89;47.54
1652;BME280;823;49.028;8.454;2023-05-20T06:58:53;100484.69;;;19.06;47.34
1652;BME280;823;49.028;8.454;2023-05-20T07:03:54;100488.38;;;19.29;47.69
1652;BME280;823;49.028;8.454;2023-05-20T07:08:54;100483.22;;;19.40;47.14
1652;BME280;823;49.028;8.454;2023-05-20T07:13:54;100468.84;;;19.72;47.09
1652;BME280;823;49.028;8.454;2023-05-20T07:18:55;100454.97;;;19.70;46.63
1652;BME280;823;49.028;8.454;2023-05-20T07:23:55;100455.19;;;19.80;46.70
1652;BME280;823;49.028;8.454;2023-05-20T07:28:55;100444.56;;;19.94;46.40
1652;BME280;823;49.028;8.454;2023-05-20T07:33:56;100442.91;;;20.17;46.32
1652;BME280;823;49.028;8.454;2023-05-20T07:38:56;100437.88;;;20.38;46.98
1652;BME280;823;49.028;8.454;2023-05-20T07:43:57;100444.75;;;20.64;45.94
1652;BME280;823;49.028;8.454;2023-05-20T07:48:57;100431.13;;;20.58;45.78
1652;BME280;823;49.028;8.454;2023-05-20T07:53:57;100430.97;;;20.73;46.12
1652;BME280;823;49.028;8.454;2023-05-20T07:58:58;100434.13;;;21.01;46.19
1652;BME280;823;49.028;8.454;2023-05-20T08:03:59;100421.94;;;21.11;46.64
1652;BME280;823;49.028;8.454;2023-05-20T08:09:01;100430.31;;;21.16;44.31
1652;BME280;823;49.028;8.454;2023-05-20T08:14:01;100416.81;;;21.21;44.62
1652;BME280;823;49.028;8.454;2023-05-20T08:19:02;100424.38;;;21.37;44.52
1652;BME280;823;49.028;8.454;2023-05-20T08:24:03;100411.94;;;21.50;44.36
1652;BME280;823;49.028;8.454;2023-05-20T08:29:03;100406.81;;;21.60;44.26
1652;BME280;823;49.028;8.454;2023-05-20T08:34:03;100414.66;;;21.49;44.21
1652;BME280;823;49.028;8.454;2023-05-20T08:39:04;100397.34;;;21.57;44.22
1652;BME280;823;49.028;8.454;2023-05-20T08:44:04;100399.25;;;21.55;44.54
1652;BME280;823;49.028;8.454;2023-05-20T08:49:06;100395.16;;;21.51;42.93
1652;BME280;823;49.028;8.454;2023-05-20T08:54:07;100385.75;;;21.60;43.70
1652;BME280;823;49.028;8.454;2023-05-20T08:59:08;100382.47;;;21.79;43.21
1652;BME280;823;49.028;8.454;2023-05-20T09:04:09;100376.53;;;21.98;43.13
1652;BME280;823;49.028;8.454;2023-05-20T09:09:13;100377.00;;;22.03;43.14
1652;BME280;823;49.028;8.454;2023-05-20T09:14:13;100383.78;;;22.17;43.53
1652;BME280;823;49.028;8.454;2023-05-20T09:19:14;100384.44;;;21.98;43.65
1652;BME280;823;49.028;8.454;2023-05-20T09:24:14;100382.84;;;22.07;43.63
1652;BME280;823;49.028;8.454;2023-05-20T09:29:14;100394.81;;;22.11;42.87
1652;BME280;823;49.028;8.454;2023-05-20T09:34:15;100388.91;;;22.19;44.22
1652;BME280;823;49.028;8.454;2023-05-20T09:39:22;100388.41;;;22.36;43.47
1652;BME280;823;49.028;8.454;2023-05-20T09:44:25;100381.00;;;22.51;43.18
1652;BME280;823;49.028;8.454;2023-05-20T09:49:27;100380.22;;;22.82;43.09
1652;BME280;823;49.028;8.454;2023-05-20T09:54:29;100374.31;;;23.20;40.28
1652;BME280;823;49.028;8.454;2023-05-20T09:59:31;100367.22;;;23.61;40.35
1652;BME280;823;49.028;8.454;2023-05-20T10:04:33;100364.59;;;23.61;40.66
1652;BME280;823;49.028;8.454;2023-05-20T10:09:47;100356.88;;;23.99;38.32
1652;BME280;823;49.028;8.454;2023-05-20T10:14:55;100349.09;;;24.07;38.97
1652;BME280;823;49.028;8.454;2023-05-20T10:19:59;100344.63;;;23.88;38.21
1652;BME280;823;49.028;8.454;2023-05-20T10:25:04;100337.13;;;24.13;38.89
1652;BME280;823;49.028;8.454;2023-05-20T10:30:14;100328.75;;;24.37;39.19
1652;BME280;823;49.028;8.454;2023-05-20T10:35:20;100332.34;;;24.46;37.18
1652;BME280;823;49.028;8.454;2023-05-20T10:40:21;100328.44;;;24.50;37.58
1652;BME280;823;49.028;8.454;2023-05-20T10:45:28;100318.59;;;24.33;37.99
1652;BME280;823;49.028;8.454;2023-05-20T10:50:35;100318.63;;;24.23;37.96
1652;BME280;823;49.028;8.454;2023-05-20T10:55:37;100319.03;;;24.18;37.83
1652;BME280;823;49.028;8.454;2023-05-20T11:00:38;100312.50;;;24.32;38.42
1652;BME280;823;49.028;8.454;2023-05-20T11:05:40;100314.31;;;24.31;38.08
1652;BME280;823;49.028;8.454;2023-05-20T11:10:41;100302.28;;;24.57;38.71
1652;BME280;823;49.028;8.454;2023-05-20T11:15:41;100304.22;;;24.74;38.75
1652;BME280;823;49.028;8.454;2023-05-20T11:20:42;100285.09;;;24.80;37.12
1652;BME280;823;49.028;8.454;2023-05-20T11:25:44;100277.41;;;24.87;36.83
1652;BME280;823;49.028;8.454;2023-05-20T11:30:44;100277.78;;;24.64;36.57
1652;BME280;823;49.028;8.454;2023-05-20T11:35:49;100268.41;;;24.80;36.70
1652;BME280;823;49.028;8.454;2023-05-20T11:40:52;100270.19;;;24.79;36.77
1652;BME280;823;49.028;8.454;2023-05-20T11:45:55;100272.69;;;24.81;36.21
1652;BME280;823;49.028;8.454;2023-05-20T11:50:58;100266.63;;;24.98;36.60
1652;BME280;823;49.028;8.454;2023-05-20T11:55:59;100267.09;;;24.94;36.97
1652;BME280;823;49.028;8.454;2023-05-20T12:01:00;100261.41;;;24.89;38.20
1652;BME280;823;49.028;8.454;2023-05-20T12:06:01;100261.19;;;25.00;35.60
1652;BME280;823;49.028;8.454;2023-05-20T12:11:02;100256.16;;;25.07;36.51
1652;BME280;823;49.028;8.454;2023-05-20T12:16:02;100261.44;;;25.07;38.56
1652;BME280;823;49.028;8.454;2023-05-20T12:21:04;100242.31;;;25.13;36.35
1652;BME280;823;49.028;8.454;2023-05-20T12:26:05;100237.72;;;25.15;36.92
1652;BME280;823;49.028;8.454;2023-05-20T12:31:05;100230.88;;;25.40;36.64
1652;BME280;823;49.028;8.454;2023-05-20T12:36:05;100234.56;;;25.65;36.15
1652;BME280;823;49.028;8.454;2023-05-20T12:41:06;100229.56;;;25.80;35.67
1652;BME280;823;49.028;8.454;2023-05-20T12:46:06;100236.09;;;25.68;34.69
1652;BME280;823;49.028;8.454;2023-05-20T12:51:07;100232.06;;;25.64;35.60
1652;BME280;823;49.028;8.454;2023-05-20T12:56:07;100234.78;;;25.72;35.62
1652;BME280;823;49.028;8.454;2023-05-20T13:01:07;100226.03;;;25.72;35.09
1652;BME280;823;49.028;8.454;2023-05-20T13:06:08;100213.88;;;25.87;35.01
1652;BME280;823;49.028;8.454;2023-05-20T13:11:08;100219.59;;;25.74;35.14
1652;BME280;823;49.028;8.454;2023-05-20T13:16:08;100210.41;;;25.87;35.54
1652;BME280;823;49.028;8.454;2023-05-20T13:21:09;100211.03;;;25.62;34.78
1652;BME280;823;49.028;8.454;2023-05-20T13:26:10;100207.41;;;25.63;34.61
1652;BME280;823;49.028;8.454;2023-05-20T13:31:11;100200.19;;;25.74;37.12
1652;BME280;823;49.028;8.454;2023-05-20T13:36:12;100202.91;;;25.82;36.95
1652;BME280;823;49.028;8.454;2023-05-20T13:41:12;100178.06;;;25.57;35.38
1652;BME280;823;49.028;8.454;2023-05-20T13:46:12;100176.31;;;25.65;35.44
1652;BME280;823;49.028;8.454;2023-05-20T13:51:13;100175.50;;;25.91;35.81
1652;BME280;823;49.028;8.454;2023-05-20T13:56:13;100163.50;;;25.79;35.17
1652;BME280;823;49.028;8.454;2023-05-20T14:01:14;100158.66;;;26.00;35.17
1652;BME280;823;49.028;8.454;2023-05-20T14:06:14;100148.34;;;25.97;35.00
1652;BME280;823;49.028;8.454;2023-05-20T14:11:17;100142.53;;;26.12;34.72
1652;BME280;823;49.028;8.454;2023-05-20T14:16:18;100134.25;;;26.15;35.29
1652;BME280;823;49.028;8.454;2023-05-20T14:21:18;100139.72;;;26.13;35.99
1652;BME280;823;49.028;8.454;2023-05-20T14:26:19;100140.81;;;26.03;35.29
1652;BME280;823;49.028;8.454;2023-05-20T14:31:20;100132.47;;;25.97;35.63
1652;BME280;823;49.028;8.454;2023-05-20T14:36:21;100131.09;;;26.11;35.21
1652;BME280;823;49.028;8.454;2023-05-20T14:41:21;100127.28;;;26.14;35.39
1652;BME280;823;49.028;8.454;2023-05-20T14:46:21;100121.69;;;26.17;35.14
1652;BME280;823;49.028;8.454;2023-05-20T14:51:22;100116.19;;;26.10;34.87
1652;BME280;823;49.028;8.454;2023-05-20T14:56:22;100110.47;;;26.31;35.94
1652;BME280;823;49.028;8.454;2023-05-20T15:01:22;100114.50;;;26.44;35.05
1652;BME280;823;49.028;8.454;2023-05-20T15:06:23;100113.69;;;26.51;35.04
1652;BME280;823;49.028;8.454;2023-05-20T15:11:23;100114.78;;;26.32;35.40
1652;BME280;823;49.028;8.454;2023-05-20T15:16:24;100122.47;;;26.52;35.66
1652;BME280;823;49.028;8.454;2023-05-20T15:21:24;100118.28;;;26.41;34.87
1652;BME280;823;49.028;8.454;2023-05-20T15:26:24;100113.16;;;26.48;34.86
1652;BME280;823;49.028;8.454;2023-05-20T15:31:25;100117.16;;;26.52;34.73
1652;BME280;823;49.028;8.454;2023-05-20T15:36:25;100116.19;;;26.61;34.24
1652;BME280;823;49.028;8.454;2023-05-20T15:41:25;100127.94;;;26.50;34.68
1652;BME280;823;49.028;8.454;2023-05-20T15:46:26;100129.72;;;26.42;34.84
1652;BME280;823;49.028;8.454;2023-05-20T15:51:26;100118.28;;;26.41;34.98
1652;BME280;823;49.028;8.454;2023-05-20T15:56:27;100124.56;;;26.40;35.62
1652;BME280;823;49.028;8.454;2023-05-20T16:01:28;100121.44;;;26.37;35.46
1652;BME280;823;49.028;8.454;2023-05-20T16:06:28;100118.44;;;26.40;35.22
1652;BME280;823;49.028;8.454;2023-05-20T16:11:29;100111.63;;;26.37;34.65
1652;BME280;823;49.028;8.454;2023-05-20T16:16:31;100114.66;;;26.42;35.53
1652;BME280;823;49.028;8.454;2023-05-20T16:21:31;100115.13;;;26.46;35.10
1652;BME280;823;49.028;8.454;2023-05-20T16:26:31;100119.81;;;26.52;34.68
1652;BME280;823;49.028;8.454;2023-05-20T16:31:31;100120.16;;;26.57;35.47
1652;BME280;823;49.028;8.454;2023-05-20T16:36:32;100125.09;;;26.44;35.37
1652;BME280;823;49.028;8.454;2023-05-20T16:41:32;100122.78;;;26.41;35.12
1652;BME280;823;49.028;8.454;2023-05-20T16:46:33;100118.41;;;26.31;35.26
1652;BME280;823;49.028;8.454;2023-05-20T16:51:33;100114.59;;;26.26;35.34
1652;BME280;823;49.028;8.454;2023-05-20T16:56:33;100105.91;;;26.07;36.20
1652;BME280;823;49.028;8.454;2023-05-20T17:01:35;100093.84;;;26.13;35.87
1652;BME280;823;49.028;8.454;2023-05-20T17:06:36;100104.72;;;26.10;35.84
1652;BME280;823;49.028;8.454;2023-05-20T17:11:38;100098.72;;;25.99;35.80
1652;BME280;823;49.028;8.454;2023-05-20T17:16:39;100107.53;;;25.82;36.19
1652;BME280;823;49.028;8.454;2023-05-20T17:21:40;100119.19;;;25.89;35.89
1652;BME280;823;49.028;8.454;2023-05-20T17:26:40;100129.69;;;25.73;36.02
1652;BME280;823;49.028;8.454;2023-05-20T17:31:42;100133.94;;;25.65;37.12
1652;BME280;823;49.028;8.454;2023-05-20T17:36:43;100132.75;;;25.42;37.76
1652;BME280;823;49.028;8.454;2023-05-20T17:41:43;100142.91;;;25.28;37.93
1652;BME280;823;49.028;8.454;2023-05-20T17:46:43;100148.94;;;25.03;38.66
1652;BME280;823;49.028;8.454;2023-05-20T17:51:43;100150.16;;;24.90;38.65
1652;BME280;823;49.028;8.454;2023-05-20T17:56:46;100149.25;;;24.81;39.13
1652;BME280;823;49.028;8.454;2023-05-20T18:01:46;100155.47;;;24.62;39.65
1652;BME280;823;49.028;8.454;2023-05-20T18:06:47;100157.84;;;24.56;39.67
1652;BME280;823;49.028;8.454;2023-05-20T18:11:47;100145.50;;;24.46;39.83
1652;BME280;823;49.028;8.454;2023-05-20T18:16:47;100151.81;;;24.36;40.03
1652;BME280;823;49.028;8.454;2023-05-20T18:21:48;100155.03;;;24.29;40.15
1652;BME280;823;49.028;8.454;2023-05-20T18:26:48;100154.06;;;24.30;40.24
1652;BME280;823;49.028;8.454;2023-05-20T18:31:49;100161.09;;;24.12;40.62
1652;BME280;823;49.028;8.454;2023-05-20T18:36:49;100162.75;;;24.13;40.43
1652;BME280;823;49.028;8.454;2023-05-20T18:41:50;100160.13;;;24.03;40.79
1652;BME280;823;49.028;8.454;2023-05-20T18:46:50;100156.94;;;24.09;40.70
1652;BME280;823;49.028;8.454;2023-05-20T18:51:50;100160.75;;;23.77;41.17
1652;BME280;823;49.028;8.454;2023-05-20T18:56:51;100159.34;;;23.83;41.53
1652;BME280;823;49.028;8.454;2023-05-20T19:01:51;100161.41;;;23.79;41.56
1652;BME280;823;49.028;8.454;2023-05-20T19:06:51;100164.19;;;23.78;42.00
1652;BME280;823;49.028;8.454;2023-05-20T19:11:52;100163.25;;;23.69;41.56
1652;BME280;823;49.028;8.454;2023-05-20T19:16:55;100165.06;;;23.59;42.09
1652;BME280;823;49.028;8.454;2023-05-20T19:21:57;100185.06;;;23.52;42.55
1652;BME280;823;49.028;8.454;2023-05-20T19:26:58;100173.41;;;23.44;42.79
1652;BME280;823;49.028;8.454;2023-05-20T19:31:58;100179.94;;;23.21;42.88
1652;BME280;823;49.028;8.454;2023-05-20T19:36:58;100181.44;;;23.13;42.95
1652;BME280;823;49.028;8.454;2023-05-20T19:41:59;100182.44;;;23.12;43.32
1652;BME280;823;49.028;8.454;2023-05-20T19:46:59;100189.88;;;22.98;43.39
1652;BME280;823;49.028;8.454;2023-05-20T19:52:00;100186.81;;;23.02;43.14
1652;BME280;823;49.028;8.454;2023-05-20T19:57:00;100188.88;;;22.89;43.42
1652;BME280;823;49.028;8.454;2023-05-20T20:02:00;100192.75;;;22.75;43.83
1652;BME280;823;49.028;8.454;2023-05-20T20:07:02;100202.28;;;22.76;43.73
1652;BME280;823;49.028;8.454;2023-05-20T20:12:03;100195.47;;;22.64;43.97
1652;BME280;823;49.028;8.454;2023-05-20T20:17:04;100205.75;;;22.67;43.91
1652;BME280;823;49.028;8.454;2023-05-20T20:22:05;100205.59;;;22.58;44.20
1652;BME280;823;49.028;8.454;2023-05-20T20:27:05;100205.28;;;22.52;44.30
1652;BME280;823;49.028;8.454;2023-05-20T20:32:07;100204.31;;;22.53;44.75
1652;BME280;823;49.028;8.454;2023-05-20T20:37:07;100212.69;;;22.37;44.57
1652;BME280;823;49.028;8.454;2023-05-20T20:42:07;100204.78;;;22.37;44.78
1652;BME280;823;49.028;8.454;2023-05-20T20:47:08;100209.16;;;22.26;45.25
1652;BME280;823;49.028;8.454;2023-05-20T20:52:09;100211.63;;;22.18;45.45
1652;BME280;823;49.028;8.454;2023-05-20T20:57:09;100206.91;;;22.22;45.73
1652;BME280;823;49.028;8.454;2023-05-20T21:02:10;100215.47;;;22.14;45.69
1652;BME280;823;49.028;8.454;2023-05-20T21:07:11;100198.06;;;22.02;45.42
1652;BME280;823;49.028;8.454;2023-05-20T21:12:11;100196.41;;;22.01;46.05
1652;BME280;823;49.028;8.454;2023-05-20T21:17:12;100189.59;;;21.98;46.43
1652;BME280;823;49.028;8.454;2023-05-20T21:22:12;100184.44;;;21.97;46.31
1652;BME280;823;49.028;8.454;2023-05-20T21:27:12;100179.75;;;21.79;47.26
1652;BME280;823;49.028;8.454;2023-05-20T21:32:13;100187.03;;;21.87;46.71
1652;BME280;823;49.028;8.454;2023-05-20T21:37:13;100175.41;;;21.89;47.34
1652;BME280;823;49.028;8.454;2023-05-20T21:42:13;100183.38;;;21.78;47.02
1652;BME280;823;49.028;8.454;2023-05-20T21:47:14;100176.69;;;21.74;47.47
1652;BME280;823;49.028;8.454;2023-05-20T21:52:14;100173.16;;;21.64;47.39
1652;BME280;823;49.028;8.454;2023-05-20T21:57:14;100165.50;;;21.60;47.42
1652;BME280;823;49.028;8.454;2023-05-20T22:02:15;100165.78;;;21.57;47.76
1652;BME280;823;49.028;8.454;2023-05-20T22:07:16;100162.19;;;21.47;47.82
1652;BME280;823;49.028;8.454;2023-05-20T22:12:17;100159.81;;;21.44;47.73
1652;BME280;823;49.028;8.454;2023-05-20T22:17:19;100155.91;;;21.38;47.99
1652;BME280;823;49.028;8.454;2023-05-20T22:22:20;100161.78;;;21.31;48.39
1652;BME280;823;49.028;8.454;2023-05-20T22:27:20;100149.75;;;21.28;48.50
1652;BME280;823;49.028;8.454;2023-05-20T22:32:21;100148.41;;;21.22;48.50
1652;BME280;823;49.028;8.454;2023-05-20T22:37:21;100147.00;;;21.18;49.03
1652;BME280;823;49.028;8.454;2023-05-20T22:42:22;100147.25;;;21.15;48.98
1652;BME280;823;49.028;8.454;2023-05-20T22:47:22;100135.31;;;21.11;49.39
1652;BME280;823;49.028;8.454;2023-05-20T22:52:23;100138.19;;;21.08;49.47
1652;BME280;823;49.028;8.454;2023-05-20T22:57:24;100132.25;;;21.06;49.94
1652;BME280;823;49.028;8.454;2023-05-20T23:02:24;100125.66;;;21.00;50.18
1652;BME280;823;49.028;8.454;2023-05-20T23:07:25;100120.78;;;20.96;50.30
1652;BME280;823;49.028;8.454;2023-05-20T23:12:25;100120.53;;;20.99;50.40
1652;BME280;823;49.028;8.454;2023-05-20T23:17:25;100112.31;;;20.92;50.19
1652;BME280;823;49.028;8.454;2023-05-20T23:22:26;100106.47;;;20.88;50.43
1652;BME280;823;49.028;8.454;2023-05-20T23:27:26;100105.19;;;20.83;51.02
1652;BME280;823;49.028;8.454;2023-05-20T23:32:26;100100.28;;;20.78;51.31
1652;BME280;823;49.028;8.454;2023-05-20T23:37:27;100094.19;;;20.78;51.25
1652;BME280;823;49.028;8.454;2023-05-20T23:42:27;100093.59;;;20.74;51.52
1652;BME280;823;49.028;8.454;2023-05-20T23:47:28;100095.78;;;20.69;51.73
1652;BME280;823;49.028;8.454;2023-05-20T23:52:29;100090.97;;;20.63;51.65
1652;BME280;823;49.028;8.454;2023-05-20T23:57:29;100090.41;;;20.59;51.84
